Time;durP1;ratioP1;P1;durP2;ratioP2;P2;SDS_P1;SDS_P2;PMS_P1;PMS_P2;Temp;Humidity;BMP_temperature;BMP_pressure;BME280_temperature;BME280_humidity;BME280_pressure;Samples;Min_cycle;Max_cycle;Signal;HPM_P1;HPM_P2
2023/06/13 00:00:47;;;;;;;5.72;4.20;;;;;;;13.68;49.76;150725.91;5054145;28;20302;-76
2023/06/13 00:03:13;;;;;;;4.68;4.15;;;;;;;13.59;49.83;150704.00;5051878;28;20293;-74
2023/06/13 00:05:46;;;;;;;7.07;4.60;;;;;;;13.75;49.67;150742.56;5057855;28;20032;-75
2023/06/13 00:08:21;;;;;;;4.88;4.18;;;;;;;13.69;49.13;150728.44;5066280;28;20033;-75
2023/06/13 00:10:49;;;;;;;5.30;4.38;;;;;;;13.61;50.63;150709.16;5046335;28;20197;-70
2023/06/13 00:13:16;;;;;;;5.18;3.72;;;;;;;13.61;50.43;150707.84;5062193;28;20080;-70
2023/06/13 00:15:57;;;;;;;4.43;3.47;;;;;;;13.50;49.60;150680.91;5065815;28;20056;-71
2023/06/13 00:18:23;;;;;;;4.70;3.67;;;;;;;13.44;49.79;150666.75;5066028;28;20067;-72
2023/06/13 00:20:52;;;;;;;6.18;4.03;;;;;;;13.37;50.63;150648.75;5065735;28;20037;-72
2023/06/13 00:23:17;;;;;;;6.50;3.72;;;;;;;13.51;50.27;150683.47;5064741;28;20033;-71
2023/06/13 00:25:43;;;;;;;5.50;3.25;;;;;;;13.41;51.08;150659.06;5064464;28;20045;-71
2023/06/13 00:28:10;;;;;;;3.50;3.20;;;;;;;13.37;50.95;150647.50;5065742;28;20029;-73
2023/06/13 00:30:35;;;;;;;4.13;3.30;;;;;;;13.32;50.87;150635.84;5063987;28;20078;-72
2023/06/13 00:33:01;;;;;;;7.18;3.13;;;;;;;13.45;50.73;150668.03;5051329;28;20024;-72
2023/06/13 00:35:26;;;;;;;7.00;3.83;;;;;;;13.38;51.32;150650.03;5065714;28;20077;-71
2023/06/13 00:37:54;;;;;;;3.92;3.28;;;;;;;13.37;51.27;150647.50;5059495;28;20085;-72
2023/06/13 00:40:20;;;;;;;6.35;2.85;;;;;;;13.17;51.47;150598.59;5053131;28;20029;-73
2023/06/13 00:42:46;;;;;;;4.15;3.53;;;;;;;13.24;52.04;150615.28;5065033;28;20044;-70
2023/06/13 00:45:21;;;;;;;5.13;3.15;;;;;;;13.29;52.51;150628.13;5065257;28;20060;-70
2023/06/13 00:47:55;;;;;;;6.07;2.85;;;;;;;13.28;51.55;150626.88;5065102;28;20025;-70
2023/06/13 00:50:26;;;;;;;3.35;2.90;;;;;;;12.95;51.72;150544.66;5065552;28;20132;-70
2023/06/13 00:52:54;;;;;;;6.13;3.03;;;;;;;13.12;52.09;150585.72;5045279;28;20036;-71
2023/06/13 00:55:21;;;;;;;3.45;2.97;;;;;;;13.07;51.92;150572.91;5061530;28;20041;-72
2023/06/13 00:57:51;;;;;;;7.32;3.25;;;;;;;13.04;52.77;150565.16;5057079;28;20040;-71
2023/06/13 01:00:19;;;;;;;4.43;3.45;;;;;;;13.06;52.08;150570.34;5062644;28;20052;-73
2023/06/13 01:02:45;;;;;;;5.03;3.08;;;;;;;13.07;51.59;150572.91;5030672;28;20214;-73
2023/06/13 01:05:11;;;;;;;4.45;3.15;;;;;;;13.04;51.63;150565.16;5063948;28;20044;-73
2023/06/13 01:07:39;;;;;;;4.97;3.22;;;;;;;12.86;53.39;150520.22;5065039;28;20064;-73
2023/06/13 01:10:06;;;;;;;3.10;2.60;;;;;;;12.91;52.63;150534.38;5065028;28;20036;-74
2023/06/13 01:12:37;;;;;;;5.63;3.15;;;;;;;12.88;52.79;150526.66;5056531;28;20356;-71
2023/06/13 01:15:10;;;;;;;9.15;3.05;;;;;;;12.86;52.75;150520.22;5064512;28;20021;-72
2023/06/13 01:17:57;;;;;;;7.80;3.25;;;;;;;12.93;53.33;150538.22;5063367;28;20041;-72
2023/06/13 01:20:27;;;;;;;6.43;3.15;;;;;;;12.90;53.16;150530.50;5064567;28;20025;-71
2023/06/13 01:23:10;;;;;;;2.95;2.65;;;;;;;12.67;53.00;150472.66;5044763;28;20037;-72
2023/06/13 01:25:42;;;;;;;3.30;2.72;;;;;;;12.94;52.65;150542.06;5060535;28;20032;-72
2023/06/13 01:28:13;;;;;;;3.20;2.90;;;;;;;12.95;52.18;150544.66;5058863;28;20040;-71
2023/06/13 01:30:40;;;;;;;4.88;2.75;;;;;;;12.87;53.31;150524.06;5066247;28;20025;-71
2023/06/13 01:33:08;;;;;;;5.13;3.10;;;;;;;12.78;52.37;150500.94;5054336;28;20305;-72
2023/06/13 01:35:34;;;;;;;5.10;3.05;;;;;;;12.83;53.98;150513.81;5065623;28;20313;-70
2023/06/13 01:38:00;;;;;;;8.02;3.03;;;;;;;12.95;53.87;150544.66;5064485;28;20021;-72
2023/06/13 01:40:25;;;;;;;6.07;2.80;;;;;;;13.00;53.30;150554.88;5061804;28;20051;-72
2023/06/13 01:42:51;;;;;;;3.50;3.00;;;;;;;12.87;54.32;150524.06;5056357;28;20024;-73
2023/06/13 01:45:17;;;;;;;4.75;2.70;;;;;;;12.90;53.27;150531.78;5064399;28;20063;-71
2023/06/13 01:48:24;;;;;;;5.05;3.22;;;;;;;12.87;53.38;150522.75;5063706;28;20020;-72
2023/06/13 01:51:14;;;;;;;4.32;3.10;;;;;;;12.68;54.57;150475.25;5063079;28;20229;-72
2023/06/13 01:53:48;;;;;;;4.15;2.53;;;;;;;12.78;53.86;150500.94;5064147;28;20025;-71
2023/06/13 01:56:19;;;;;;;2.83;2.53;;;;;;;12.75;53.63;150493.22;5063754;28;20028;-71
2023/06/13 01:58:54;;;;;;;3.00;2.70;;;;;;;12.71;54.43;150482.94;5059516;28;20039;-73
2023/06/13 02:01:20;;;;;;;6.85;2.85;;;;;;;12.83;53.66;150512.53;5059405;28;20135;-72
2023/06/13 02:03:46;;;;;;;5.97;3.20;;;;;;;12.82;53.75;150509.94;5063355;28;20041;-73
2023/06/13 02:06:12;;;;;;;4.53;2.63;;;;;;;12.54;55.29;150440.56;5063358;28;20224;-72
2023/06/13 02:08:38;;;;;;;4.32;3.05;;;;;;;12.50;54.21;150430.28;5063561;28;20078;-71
2023/06/13 02:11:03;;;;;;;5.72;3.20;;;;;;;12.78;55.02;150502.25;5063671;28;20046;-72
2023/06/13 02:13:29;;;;;;;4.90;3.20;;;;;;;12.81;53.71;150508.63;5063757;28;20091;-71
2023/06/13 02:15:55;;;;;;;5.03;2.63;;;;;;;12.72;54.88;150485.53;5063345;28;20349;-71
2023/06/13 02:18:20;;;;;;;6.30;2.85;;;;;;;12.87;54.75;150524.06;5063766;28;20029;-71
2023/06/13 02:20:46;;;;;;;5.40;3.10;;;;;;;12.82;54.59;150509.94;5062952;28;20033;-71
2023/06/13 02:23:12;;;;;;;5.97;2.83;;;;;;;12.97;54.48;150548.50;5063719;28;20053;-74
2023/06/13 02:25:38;;;;;;;4.45;2.90;;;;;;;13.05;53.65;150569.03;5060483;28;20025;-72
2023/06/13 02:28:04;;;;;;;6.88;2.95;;;;;;;13.09;53.43;150579.31;5057063;28;20242;-73
2023/06/13 02:30:29;;;;;;;3.17;2.85;;;;;;;12.95;53.98;150543.34;5063609;28;20017;-73
2023/06/13 02:32:55;;;;;;;4.53;2.80;;;;;;;12.99;53.94;150552.34;5063569;28;20097;-73
2023/06/13 02:35:23;;;;;;;3.30;2.90;;;;;;;12.99;53.72;150553.63;5063381;28;20041;-72
2023/06/13 02:37:53;;;;;;;4.85;2.88;;;;;;;12.89;54.57;150529.19;5063394;28;20033;-73
2023/06/13 02:40:19;;;;;;;7.38;3.10;;;;;;;12.87;54.55;150524.06;5063422;28;20032;-73
2023/06/13 02:42:49;;;;;;;5.30;3.05;;;;;;;13.13;54.91;150588.31;5078852;28;20036;-71
2023/06/13 02:45:18;;;;;;;4.45;3.20;;;;;;;13.24;54.42;150615.28;5063383;28;20089;-71
2023/06/13 02:47:44;;;;;;;6.38;3.42;;;;;;;13.01;54.80;150557.47;5063096;28;20305;-71
2023/06/13 02:50:10;;;;;;;7.65;2.90;;;;;;;13.10;54.23;150580.63;5063266;28;20037;-71
2023/06/13 02:52:37;;;;;;;4.72;2.63;;;;;;;12.95;54.92;150544.66;5061840;28;20248;-72
2023/06/13 02:55:07;;;;;;;3.42;3.13;;;;;;;13.15;54.34;150593.44;5063156;28;20541;-75
2023/06/13 02:57:33;;;;;;;4.55;2.95;;;;;;;13.13;54.14;150588.31;5049649;28;20222;-73
2023/06/13 02:59:59;;;;;;;3.25;2.72;;;;;;;13.11;53.70;150584.47;5063816;28;20032;-73
2023/06/13 03:02:26;;;;;;;2.85;2.65;;;;;;;13.25;54.57;150617.84;5046247;28;20029;-73
2023/06/13 03:04:52;;;;;;;5.90;2.95;;;;;;;13.29;54.12;150628.13;5062349;28;20355;-72
2023/06/13 03:07:18;;;;;;;13.05;3.03;;;;;;;13.39;54.01;150653.88;5062114;28;20052;-73
2023/06/13 03:09:44;;;;;;;5.20;3.08;;;;;;;13.47;55.04;150673.19;5062992;28;20309;-71
2023/06/13 03:12:11;;;;;;;6.70;2.92;;;;;;;13.46;54.19;150671.88;5062700;28;20124;-71
2023/06/13 03:14:38;;;;;;;8.27;3.20;;;;;;;13.50;53.69;150679.63;5061796;28;20036;-70
2023/06/13 03:17:04;;;;;;;5.80;2.80;;;;;;;13.78;52.79;150751.59;5062497;28;20021;-72
2023/06/13 03:19:30;;;;;;;5.45;2.80;;;;;;;13.80;52.46;150755.44;5063167;28;20052;-74
2023/06/13 03:21:56;;;;;;;5.68;2.42;;;;;;;13.94;53.33;150790.19;5061535;28;20084;-74
2023/06/13 03:24:22;;;;;;;5.53;2.83;;;;;;;14.13;51.86;150837.72;5063090;28;20048;-73
2023/06/13 03:26:48;;;;;;;5.80;3.05;;;;;;;14.21;51.20;150858.31;5062443;28;20135;-73
2023/06/13 03:29:13;;;;;;;5.53;2.60;;;;;;;14.35;52.23;150891.72;5062868;28;20063;-73
2023/06/13 03:31:39;;;;;;;7.68;2.65;;;;;;;14.30;52.87;150880.16;5062407;28;20021;-71
2023/06/13 03:34:07;;;;;;;7.10;3.50;;;;;;;14.47;52.06;150923.88;5062818;28;20056;-72
2023/06/13 03:36:37;;;;;;;4.68;2.70;;;;;;;14.66;53.21;150970.25;5063257;28;20036;-72
2023/06/13 03:39:03;;;;;;;3.47;2.65;;;;;;;14.42;51.24;150911.06;5066691;28;20241;-72
2023/06/13 03:41:29;;;;;;;5.20;2.85;;;;;;;14.46;50.57;150921.28;5066371;28;20052;-72
2023/06/13 03:43:55;;;;;;;5.30;2.78;;;;;;;14.43;51.50;150913.59;5066593;28;20336;-71
2023/06/13 03:46:20;;;;;;;6.90;2.78;;;;;;;14.58;51.46;150949.59;5066234;28;20033;-71
2023/06/13 03:48:46;;;;;;;6.80;2.95;;;;;;;14.64;51.25;150966.38;5060859;28;20048;-76
2023/06/13 03:51:12;;;;;;;5.28;3.00;;;;;;;14.70;50.61;150979.28;5066180;28;20036;-72
2023/06/13 03:53:38;;;;;;;3.80;2.95;;;;;;;14.95;50.63;151042.28;5066509;28;20032;-70
2023/06/13 03:56:06;;;;;;;9.38;3.05;;;;;;;15.19;49.98;151102.75;5066072;28;20025;-70
2023/06/13 03:58:32;;;;;;;4.18;2.80;;;;;;;14.97;51.10;151048.72;5066408;28;20033;-72
2023/06/13 04:01:02;;;;;;;2.92;2.53;;;;;;;14.80;50.56;151005.00;5065865;28;20056;-74
2023/06/13 04:03:29;;;;;;;4.85;3.10;;;;;;;15.12;49.73;151084.72;5066363;28;20262;-72
2023/06/13 04:05:55;;;;;;;3.97;2.38;;;;;;;15.10;48.99;151079.63;5066048;28;20033;-73
2023/06/13 04:08:21;;;;;;;4.65;2.38;;;;;;;14.95;49.10;151042.28;5066444;28;20222;-71
2023/06/13 04:10:46;;;;;;;4.18;2.58;;;;;;;15.12;48.67;151086.06;5062475;28;20040;-71
2023/06/13 04:13:12;;;;;;;5.40;2.50;;;;;;;15.21;49.03;151106.66;5059470;28;20037;-70
2023/06/13 04:15:37;;;;;;;4.65;2.80;;;;;;;15.34;49.08;151141.38;5065757;28;20020;-71
2023/06/13 04:18:04;;;;;;;5.55;2.78;;;;;;;15.37;49.98;151147.81;5065826;28;20087;-73
2023/06/13 04:20:30;;;;;;;5.70;2.70;;;;;;;15.36;48.55;151146.53;5065668;28;20029;-72
2023/06/13 04:22:55;;;;;;;4.97;2.58;;;;;;;15.32;48.64;151134.91;5065766;28;20032;-73
2023/06/13 04:25:22;;;;;;;3.60;2.47;;;;;;;15.49;48.70;151177.41;5065840;28;20048;-70
2023/06/13 04:27:48;;;;;;;7.10;2.50;;;;;;;15.62;48.50;151210.91;5054787;28;20116;-74
2023/06/13 04:30:14;;;;;;;5.22;2.35;;;;;;;15.54;47.81;151191.56;5065790;28;20040;-73
2023/06/13 04:32:43;;;;;;;2.50;2.17;;;;;;;15.63;47.03;151213.44;5065352;28;20021;-70
2023/06/13 04:35:15;;;;;;;6.03;2.22;;;;;;;15.63;47.74;151212.16;5065746;28;20037;-72
2023/06/13 04:37:43;;;;;;;5.55;2.22;;;;;;;15.78;46.94;151249.53;5065124;28;20028;-72
2023/06/13 04:40:10;;;;;;;3.60;2.58;;;;;;;15.84;48.14;151266.28;5065553;28;20024;-73
2023/06/13 04:42:37;;;;;;;7.03;2.80;;;;;;;15.96;46.40;151295.91;5055205;28;20021;-71
2023/06/13 04:45:04;;;;;;;4.93;2.30;;;;;;;16.05;45.77;151319.06;5065267;28;20039;-73
2023/06/13 04:47:30;;;;;;;2.25;1.92;;;;;;;16.17;46.47;151347.41;5065311;28;20020;-71
2023/06/13 04:49:58;;;;;;;2.53;2.20;;;;;;;16.35;46.60;151393.78;5064464;28;20029;-71
2023/06/13 04:52:32;;;;;;;3.40;1.88;;;;;;;16.33;44.58;151388.66;5063073;28;20037;-71
2023/06/13 04:55:01;;;;;;;4.35;2.25;;;;;;;16.44;45.71;151415.66;5065260;28;20302;-71
2023/06/13 04:57:27;;;;;;;6.68;2.40;;;;;;;16.51;45.65;151432.41;5065066;28;20129;-73
2023/06/13 04:59:54;;;;;;;4.93;2.40;;;;;;;16.41;44.69;151406.66;5064965;28;20025;-73
2023/06/13 05:02:20;;;;;;;3.25;1.80;;;;;;;16.61;44.17;151458.16;5048661;28;20033;-73
2023/06/13 05:04:47;;;;;;;2.35;2.03;;;;;;;16.62;44.23;151459.50;5061526;28;20060;-71
2023/06/13 05:07:14;;;;;;;4.38;2.13;;;;;;;16.71;44.36;151483.91;5062270;28;20094;-72
2023/06/13 05:09:43;;;;;;;3.03;1.80;;;;;;;16.70;43.63;151481.38;5065533;28;20064;-71
2023/06/13 05:12:10;;;;;;;5.18;2.08;;;;;;;16.74;44.42;151490.38;5064831;28;20029;-71
2023/06/13 05:14:37;;;;;;;2.30;1.95;;;;;;;16.76;42.70;151494.22;5065102;28;20029;-70
2023/06/13 05:17:05;;;;;;;3.88;1.83;;;;;;;16.97;42.93;151548.38;5064610;28;20167;-71
2023/06/13 05:19:32;;;;;;;4.65;1.67;;;;;;;17.18;42.33;151601.22;5064930;28;20102;-72
2023/06/13 05:22:00;;;;;;;2.80;2.38;;;;;;;17.52;42.58;151685.03;5064260;28;20025;-72
2023/06/13 05:24:25;;;;;;;5.63;2.50;;;;;;;17.39;41.98;151652.81;5064540;28;20039;-72
2023/06/13 05:26:51;;;;;;;3.00;1.92;;;;;;;17.27;40.84;151623.13;5065023;28;20029;-70
2023/06/13 05:29:17;;;;;;;3.90;1.70;;;;;;;17.52;41.55;151685.03;5064985;28;20036;-73
2023/06/13 05:31:42;;;;;;;2.40;1.73;;;;;;;17.58;41.82;151701.75;5063618;28;20044;-67
2023/06/13 05:34:08;;;;;;;1.83;1.65;;;;;;;17.41;41.47;151659.25;5064386;28;20047;-68
2023/06/13 05:36:33;;;;;;;3.08;1.95;;;;;;;17.68;41.63;151726.25;5064247;28;20035;-69
2023/06/13 05:39:00;;;;;;;2.78;1.80;;;;;;;17.45;41.76;151667.00;5064044;28;20252;-67
2023/06/13 05:41:26;;;;;;;2.92;1.80;;;;;;;17.61;41.08;151708.22;5055136;28;20057;-68
2023/06/13 05:43:51;;;;;;;1.98;1.70;;;;;;;17.85;41.13;151767.53;5061195;28;20029;-68
2023/06/13 05:46:17;;;;;;;2.42;2.00;;;;;;;17.88;40.57;151775.25;5063772;28;20079;-69
2023/06/13 05:48:43;;;;;;;4.75;2.03;;;;;;;17.76;40.75;151746.88;5064243;28;20025;-66
2023/06/13 05:51:08;;;;;;;1.98;1.70;;;;;;;17.71;40.31;151733.97;5060992;28;20048;-67
2023/06/13 05:53:34;;;;;;;3.92;1.73;;;;;;;17.79;40.36;151752.06;5064412;28;20024;-66
2023/06/13 05:55:59;;;;;;;2.97;1.70;;;;;;;17.87;39.82;151772.66;5063781;28;20052;-68
2023/06/13 05:58:25;;;;;;;4.90;1.95;;;;;;;18.09;39.50;151829.44;5063703;28;20229;-68
2023/06/13 06:00:52;;;;;;;2.20;1.67;;;;;;;18.06;39.48;151820.44;5062710;28;20306;-68
2023/06/13 06:03:18;;;;;;;2.90;1.75;;;;;;;17.75;39.13;151744.31;5063941;28;20033;-68
2023/06/13 06:05:44;;;;;;;4.78;1.90;;;;;;;17.68;39.10;151726.25;5063352;28;20337;-67
2023/06/13 06:08:10;;;;;;;3.58;1.77;;;;;;;18.15;39.73;151842.38;5064056;28;20370;-68
2023/06/13 06:10:35;;;;;;;5.35;2.10;;;;;;;18.30;39.61;151881.06;5063345;28;20028;-69
2023/06/13 06:13:01;;;;;;;5.22;2.20;;;;;;;18.25;39.41;151869.41;5063615;28;20028;-69
2023/06/13 06:15:26;;;;;;;3.92;1.58;;;;;;;18.00;38.37;151804.94;5063199;28;20021;-67
2023/06/13 06:17:52;;;;;;;3.20;1.90;;;;;;;18.16;38.54;151844.97;5063513;28;20089;-67
2023/06/13 06:20:17;;;;;;;2.88;1.48;;;;;;;18.21;39.12;151859.16;5063475;28;20020;-72
2023/06/13 06:22:43;;;;;;;2.25;1.48;;;;;;;18.13;38.71;151838.50;5063322;28;20048;-74
2023/06/13 06:25:12;;;;;;;3.00;1.77;;;;;;;18.31;39.07;151883.63;5063436;28;20074;-69
2023/06/13 06:27:38;;;;;;;2.20;1.50;;;;;;;18.53;37.50;151939.09;5063003;28;20037;-70
2023/06/13 06:30:04;;;;;;;4.85;1.80;;;;;;;18.48;37.49;151924.91;5063243;28;20117;-69
2023/06/13 06:32:30;;;;;;;12.38;2.00;;;;;;;18.66;37.75;151971.34;5063013;28;20044;-69
2023/06/13 06:34:56;;;;;;;2.70;1.90;;;;;;;18.55;38.09;151944.22;5063166;28;20033;-72
2023/06/13 06:37:22;;;;;;;3.08;1.80;;;;;;;18.40;36.92;151906.84;5057476;28;20040;-67
2023/06/13 06:39:48;;;;;;;6.68;2.35;;;;;;;18.54;37.49;151941.69;5062776;28;20164;-68
2023/06/13 06:42:13;;;;;;;2.45;1.75;;;;;;;18.75;37.75;151993.25;5062655;28;20229;-69
2023/06/13 06:44:39;;;;;;;2.45;2.00;;;;;;;18.29;37.80;151878.47;5063312;28;20021;-66
2023/06/13 06:47:04;;;;;;;4.45;1.90;;;;;;;18.70;37.23;151981.66;5062771;28;20029;-67
2023/06/13 06:49:30;;;;;;;6.15;1.98;;;;;;;18.41;37.18;151909.44;5063206;28;20025;-68
2023/06/13 06:51:55;;;;;;;3.90;1.88;;;;;;;18.62;36.81;151961.03;5062481;28;20048;-65
2023/06/13 06:54:21;;;;;;;3.80;2.05;;;;;;;18.88;37.10;152025.56;5063032;28;20028;-67
2023/06/13 06:56:46;;;;;;;3.45;2.05;;;;;;;18.85;36.89;152017.78;5062589;28;20048;-66
2023/06/13 06:59:12;;;;;;;5.53;1.88;;;;;;;18.80;36.57;152006.19;5063372;28;20040;-67
2023/06/13 07:01:38;;;;;;;4.55;2.10;;;;;;;19.07;36.78;152074.63;5052453;28;20029;-66
2023/06/13 07:04:03;;;;;;;3.83;1.70;;;;;;;19.06;36.15;152070.75;5053502;28;20032;-68
2023/06/13 07:06:30;;;;;;;2.70;2.00;;;;;;;19.20;36.62;152106.88;5059803;28;20052;-68
2023/06/13 07:08:56;;;;;;;4.07;2.00;;;;;;;19.07;36.80;152074.63;5062708;28;20095;-67
2023/06/13 07:11:22;;;;;;;4.90;2.00;;;;;;;19.20;36.36;152106.88;5051174;28;20048;-65
2023/06/13 07:13:47;;;;;;;3.53;2.20;;;;;;;19.48;37.25;152176.53;5053583;28;20025;-66
2023/06/13 07:16:13;;;;;;;3.85;1.88;;;;;;;19.22;36.54;152110.75;5052985;28;20033;-66
2023/06/13 07:18:39;;;;;;;3.03;2.03;;;;;;;19.47;36.53;152175.28;5056895;28;20017;-66
2023/06/13 07:21:05;;;;;;;3.38;1.90;;;;;;;19.24;36.09;152115.88;5056289;28;20286;-66
2023/06/13 07:23:30;;;;;;;5.68;2.20;;;;;;;19.05;35.77;152069.41;5060100;28;20459;-66
2023/06/13 07:25:56;;;;;;;3.10;1.83;;;;;;;19.11;35.87;152084.94;5059431;28;20049;-65
2023/06/13 07:28:21;;;;;;;3.65;2.00;;;;;;;19.10;35.25;152081.06;5062815;28;20033;-65
2023/06/13 07:30:47;;;;;;;3.85;2.10;;;;;;;19.20;35.71;152105.59;5062291;28;20017;-65
2023/06/13 07:33:12;;;;;;;3.70;1.75;;;;;;;19.38;36.38;152150.75;5062374;28;20031;-66
2023/06/13 07:35:38;;;;;;;3.33;1.80;;;;;;;19.60;36.61;152206.25;5062493;28;20037;-65
2023/06/13 07:38:04;;;;;;;1.65;1.50;;;;;;;19.84;36.15;152267.00;5061659;28;20070;-65
2023/06/13 07:40:29;;;;;;;3.33;1.73;;;;;;;20.08;36.95;152326.34;5062629;28;20244;-65
2023/06/13 07:42:55;;;;;;;5.22;2.67;;;;;;;19.98;36.01;152303.13;5061956;28;20314;-66
2023/06/13 07:45:20;;;;;;;4.35;2.30;;;;;;;19.51;35.44;152183.00;5061501;28;20044;-66
2023/06/13 07:47:46;;;;;;;5.43;1.90;;;;;;;19.49;34.99;152180.41;5053417;28;20063;-66
2023/06/13 07:50:11;;;;;;;3.08;2.28;;;;;;;19.58;35.66;152202.41;5061941;28;20071;-64
2023/06/13 07:52:37;;;;;;;4.35;2.00;;;;;;;19.48;35.86;152176.53;5060229;28;20384;-66
2023/06/13 07:55:04;;;;;;;3.78;2.28;;;;;;;19.72;35.17;152237.22;5053760;28;20043;-65
2023/06/13 07:57:29;;;;;;;3.10;2.00;;;;;;;19.99;35.86;152304.41;5059696;28;20025;-65
2023/06/13 07:59:55;;;;;;;3.05;1.92;;;;;;;19.81;35.10;152260.53;5062274;28;20100;-66
2023/06/13 08:02:26;;;;;;;4.47;2.05;;;;;;;20.02;35.13;152312.16;5062412;28;20025;-66
2023/06/13 08:04:51;;;;;;;3.70;1.90;;;;;;;19.80;34.44;152256.66;5062233;28;20365;-67
2023/06/13 08:07:17;;;;;;;8.52;2.42;;;;;;;19.80;35.13;152256.66;5061963;28;20052;-66
2023/06/13 08:09:43;;;;;;;2.53;2.08;;;;;;;19.53;35.26;152188.19;5062556;28;20032;-67
2023/06/13 08:12:10;;;;;;;2.83;1.80;;;;;;;19.24;35.04;152117.19;5062271;28;20067;-66
2023/06/13 08:14:36;;;;;;;2.35;1.90;;;;;;;19.46;35.05;152172.69;5062466;28;20036;-65
2023/06/13 08:17:01;;;;;;;4.03;1.90;;;;;;;19.92;35.24;152287.59;5062176;28;20179;-67
2023/06/13 08:19:27;;;;;;;2.72;1.88;;;;;;;19.84;34.80;152267.00;5062104;28;20032;-67
2023/06/13 08:21:52;;;;;;;5.97;2.00;;;;;;;19.88;34.20;152276.00;5061907;28;20028;-66
2023/06/13 08:24:18;;;;;;;5.90;2.00;;;;;;;20.00;34.75;152308.28;5064287;28;20033;-66
2023/06/13 08:26:44;;;;;;;2.35;1.80;;;;;;;19.90;33.77;152282.47;5065662;28;20037;-66
2023/06/13 08:29:11;;;;;;;5.03;1.98;;;;;;;19.71;33.64;152234.66;5065754;28;20033;-65
2023/06/13 08:31:37;;;;;;;4.05;2.13;;;;;;;19.55;34.65;152193.34;5065343;28;20029;-64
2023/06/13 08:34:02;;;;;;;4.00;1.90;;;;;;;20.02;34.60;152312.16;5065750;28;20044;-65
2023/06/13 08:36:28;;;;;;;4.47;1.98;;;;;;;20.15;34.18;152344.44;5065780;28;20085;-65
2023/06/13 08:39:00;;;;;;;5.60;1.95;;;;;;;20.08;33.81;152326.34;5065323;28;20021;-64
2023/06/13 08:41:27;;;;;;;3.30;1.90;;;;;;;20.06;33.82;152322.47;5065683;28;20301;-65
2023/06/13 08:43:53;;;;;;;2.03;1.83;;;;;;;20.15;33.19;152344.44;5065404;28;20025;-65
2023/06/13 08:46:19;;;;;;;2.42;1.90;;;;;;;20.26;33.73;152371.56;5065618;28;20048;-64
2023/06/13 08:48:45;;;;;;;4.75;2.00;;;;;;;20.45;33.82;152419.34;5065718;28;20097;-66
2023/06/13 08:51:16;;;;;;;2.72;1.80;;;;;;;20.53;33.92;152441.28;5065302;28;20040;-65
2023/06/13 08:53:51;;;;;;;7.22;2.60;;;;;;;20.45;32.72;152420.66;5065444;28;20104;-65
2023/06/13 08:56:23;;;;;;;6.32;2.20;;;;;;;20.41;33.35;152409.00;5053083;28;20040;-66
2023/06/13 08:58:58;;;;;;;5.45;2.30;;;;;;;20.58;32.68;152452.94;5061505;28;20048;-66
2023/06/13 09:01:25;;;;;;;2.60;2.15;;;;;;;20.78;33.04;152503.38;5065001;28;20148;-66
2023/06/13 09:03:51;;;;;;;3.83;2.45;;;;;;;20.62;33.38;152461.97;5064897;28;20044;-66
2023/06/13 09:06:19;;;;;;;5.10;2.30;;;;;;;20.47;32.75;152424.53;5065212;28;20122;-66
2023/06/13 09:08:46;;;;;;;2.45;2.22;;;;;;;19.87;33.84;152273.44;5065482;28;20037;-64
2023/06/13 09:11:13;;;;;;;3.25;2.08;;;;;;;19.99;33.75;152304.41;5064949;28;20381;-65
2023/06/13 09:13:40;;;;;;;3.78;2.03;;;;;;;20.13;33.43;152340.56;5052876;28;20040;-66
2023/06/13 09:16:06;;;;;;;3.53;2.22;;;;;;;20.72;33.30;152487.84;5064864;28;20042;-66
2023/06/13 09:18:36;;;;;;;2.40;2.17;;;;;;;20.72;32.78;152486.56;5064865;28;20028;-66
2023/06/13 09:21:02;;;;;;;3.92;2.38;;;;;;;20.67;32.47;152474.94;5064608;28;20036;-69
2023/06/13 09:23:30;;;;;;;5.38;2.17;;;;;;;20.34;32.75;152393.50;5064448;28;20257;-67
2023/06/13 09:25:58;;;;;;;5.32;2.30;;;;;;;20.29;34.53;152379.31;5064958;28;20037;-69
2023/06/13 09:28:37;;;;;;;4.72;2.30;;;;;;;20.58;32.92;152452.94;5064746;28;20321;-69
2023/06/13 09:31:03;;;;;;;5.05;2.30;;;;;;;20.78;33.75;152503.38;5063273;28;20040;-67
2023/06/13 09:33:29;;;;;;;3.92;2.10;;;;;;;20.88;32.91;152527.91;5080134;28;20021;-69
2023/06/13 09:35:55;;;;;;;3.05;2.28;;;;;;;20.73;32.86;152490.44;5064441;28;20052;-68
2023/06/13 09:38:26;;;;;;;2.40;2.20;;;;;;;20.55;32.74;152443.88;5064517;28;20021;-68
2023/06/13 09:40:56;;;;;;;3.63;2.40;;;;;;;20.84;33.22;152518.84;5063331;28;20294;-67
2023/06/13 09:43:22;;;;;;;4.65;2.22;;;;;;;20.68;33.39;152478.81;5059235;28;20112;-67
2023/06/13 09:45:49;;;;;;;4.70;2.40;;;;;;;20.89;32.89;152529.19;5061303;28;20037;-66
2023/06/13 09:48:15;;;;;;;4.47;2.50;;;;;;;20.79;32.60;152504.63;5062075;28;20029;-67
2023/06/13 09:50:42;;;;;;;3.50;2.10;;;;;;;20.58;32.82;152452.94;5063052;28;20043;-67
2023/06/13 09:53:08;;;;;;;2.65;2.30;;;;;;;20.43;32.34;152415.47;5062826;28;20268;-67
2023/06/13 09:55:35;;;;;;;6.25;2.40;;;;;;;20.42;32.75;152412.91;5063228;28;20029;-67
2023/06/13 09:58:02;;;;;;;6.20;2.50;;;;;;;20.77;33.43;152500.78;5061745;28;20036;-66
2023/06/13 10:00:29;;;;;;;6.78;2.75;;;;;;;20.62;32.80;152461.97;5043439;28;20025;-69
2023/06/13 10:02:58;;;;;;;6.20;2.33;;;;;;;20.82;32.98;152512.38;5062966;28;20099;-67
2023/06/13 10:05:24;;;;;;;4.85;2.40;;;;;;;21.02;33.39;152564.09;5060634;28;20099;-66
2023/06/13 10:07:52;;;;;;;3.60;2.50;;;;;;;20.81;32.83;152511.13;5062722;28;20076;-67
2023/06/13 10:10:18;;;;;;;4.13;2.17;;;;;;;21.18;34.35;152604.13;5058965;28;20151;-67
2023/06/13 10:12:53;;;;;;;2.38;2.17;;;;;;;21.28;33.20;152628.69;5061182;28;20028;-67
2023/06/13 10:15:33;;;;;;;4.28;2.25;;;;;;;21.39;32.77;152655.81;5058622;28;20039;-67
2023/06/13 10:18:05;;;;;;;5.78;2.10;;;;;;;21.05;32.12;152570.56;5060604;28;20084;-66
2023/06/13 10:20:31;;;;;;;5.88;2.03;;;;;;;20.79;32.45;152505.97;5044559;28;20021;-68
2023/06/13 10:22:57;;;;;;;4.82;2.35;;;;;;;20.83;32.48;152514.97;5062010;28;20347;-67
2023/06/13 10:25:27;;;;;;;5.22;2.30;;;;;;;21.07;32.98;152575.72;5062369;28;20029;-67
2023/06/13 10:27:59;;;;;;;2.60;2.10;;;;;;;21.20;33.68;152609.28;5059187;28;20088;-67
2023/06/13 10:30:42;;;;;;;3.55;2.70;;;;;;;21.23;33.04;152614.47;5049210;28;20032;-67
2023/06/13 10:33:41;;;;;;;3.67;2.10;;;;;;;21.05;31.89;152570.56;5063001;28;20303;-68
2023/06/13 10:36:16;;;;;;;4.75;1.98;;;;;;;21.34;32.68;152642.91;5063172;28;20305;-67
2023/06/13 10:39:10;;;;;;;3.20;2.13;;;;;;;21.28;32.57;152628.69;5055883;28;20336;-68
2023/06/13 10:41:51;;;;;;;9.32;2.25;;;;;;;21.35;32.04;152645.50;5061573;28;20052;-69
2023/06/13 10:44:39;;;;;;;4.18;2.40;;;;;;;20.83;31.96;152514.97;5057306;28;20029;-66
2023/06/13 10:47:06;;;;;;;2.63;2.38;;;;;;;21.13;32.84;152591.19;5060892;28;20029;-66
2023/06/13 10:49:37;;;;;;;5.45;2.20;;;;;;;21.07;31.98;152574.44;5055868;28;20048;-68
2023/06/13 10:52:03;;;;;;;3.60;2.03;;;;;;;21.03;32.29;152565.38;5063318;28;20127;-67
2023/06/13 10:54:29;;;;;;;3.78;2.33;;;;;;;21.15;32.16;152596.41;5063134;28;20025;-67
2023/06/13 10:57:00;;;;;;;6.32;2.60;;;;;;;21.43;32.57;152666.16;5063064;28;20084;-66
2023/06/13 10:59:33;;;;;;;3.85;2.70;;;;;;;21.39;32.29;152655.81;5049293;28;20059;-66
2023/06/13 11:01:59;;;;;;;4.22;2.38;;;;;;;21.38;32.00;152654.53;5059426;28;20049;-66
2023/06/13 11:04:28;;;;;;;2.78;2.25;;;;;;;21.32;31.53;152639.03;5062688;28;20040;-67
2023/06/13 11:07:20;;;;;;;3.95;2.70;;;;;;;21.11;31.68;152584.78;5061093;28;20094;-66
2023/06/13 11:10:01;;;;;;;6.60;2.60;;;;;;;21.18;31.65;152604.13;5060494;28;20046;-67
2023/06/13 11:12:26;;;;;;;3.88;2.30;;;;;;;21.06;31.68;152573.09;5046309;28;20036;-67
2023/06/13 11:14:57;;;;;;;3.80;2.67;;;;;;;21.05;31.10;152570.56;5055694;28;20048;-67
2023/06/13 11:17:23;;;;;;;4.38;2.70;;;;;;;21.37;31.32;152651.94;5062954;28;20043;-66
2023/06/13 11:19:52;;;;;;;4.95;2.60;;;;;;;21.15;31.85;152596.41;5062374;28;20037;-67
2023/06/13 11:22:21;;;;;;;4.55;2.70;;;;;;;21.44;32.05;152668.75;5062550;28;20057;-67
2023/06/13 11:24:47;;;;;;;5.20;2.60;;;;;;;21.24;31.82;152617.09;5062655;28;20096;-68
2023/06/13 11:27:16;;;;;;;4.20;2.58;;;;;;;21.21;31.63;152611.88;5062737;28;20024;-67